createdAt,value
2023-04-16T00:00:12.851Z,67.77
2023-04-16T00:02:45.124Z,66.49
2023-04-16T00:05:16.824Z,67.42
2023-04-16T00:07:49.136Z,67.83
2023-04-16T00:10:20.887Z,67.81
2023-04-16T00:12:52.512Z,67.49
2023-04-16T00:15:24.061Z,68.25
2023-04-16T00:17:55.912Z,68.13
2023-04-16T00:20:27.708Z,67.17
2023-04-16T00:22:59.552Z,68.15
2023-04-16T00:25:31.446Z,67.09
2023-04-16T00:28:03.226Z,67.20
2023-04-16T00:30:35.290Z,66.85
2023-04-16T00:33:07.026Z,67.80
2023-04-16T00:35:38.692Z,67.57
2023-04-16T00:38:10.220Z,66.57
2023-04-16T00:40:41.834Z,67.12
2023-04-16T00:43:23.146Z,67.55
2023-04-16T00:45:57.517Z,67.54
2023-04-16T00:48:31.739Z,67.11
2023-04-16T00:51:08.213Z,67.32
2023-04-16T00:53:39.859Z,66.83
2023-04-16T00:56:12.433Z,67.67
2023-04-16T00:58:44.225Z,68.11
2023-04-16T01:01:16.334Z,68.03
2023-04-16T01:03:49.577Z,67.22
2023-04-16T01:06:22.182Z,67.24
2023-04-16T01:08:54.344Z,67.55
2023-04-16T01:11:26.467Z,68.01
2023-04-16T01:13:58.057Z,66.56
2023-04-16T01:16:30.567Z,68.19
2023-04-16T01:19:02.920Z,66.98
2023-04-16T01:21:34.653Z,69.46
2023-04-16T01:24:06.648Z,69.68
2023-04-16T01:26:38.318Z,69.29
2023-04-16T01:29:10.904Z,67.94
2023-04-16T01:31:43.664Z,67.41
2023-04-16T01:34:15.395Z,68.12
2023-04-16T01:36:46.892Z,67.20
2023-04-16T01:39:19.507Z,68.46
2023-04-16T01:41:52.266Z,68.14
2023-04-16T01:44:23.903Z,69.66
2023-04-16T01:46:55.520Z,68.63
2023-04-16T01:49:27.831Z,69.56
2023-04-16T01:52:00.853Z,67.64
2023-04-16T01:54:32.800Z,68.33
2023-04-16T01:57:04.404Z,69.51
2023-04-16T01:59:35.959Z,69.39
2023-04-16T02:02:11.464Z,70.97
2023-04-16T02:04:45.979Z,70.40
2023-04-16T02:07:17.579Z,70.67
2023-04-16T02:09:51.922Z,70.23
2023-04-16T02:12:23.921Z,69.75
2023-04-16T02:14:55.599Z,70.41
2023-04-16T02:17:27.434Z,70.33
2023-04-16T02:20:00.182Z,69.92
2023-04-16T02:22:32.563Z,70.83
2023-04-16T02:25:05.139Z,70.43
2023-04-16T02:27:36.723Z,69.82
2023-04-16T02:30:09.231Z,69.50
2023-04-16T02:32:41.002Z,71.23
2023-04-16T02:35:12.750Z,71.19
2023-04-16T02:37:44.401Z,71.93
2023-04-16T02:40:16.232Z,74.53
2023-04-16T02:42:47.816Z,72.00
2023-04-16T02:45:20.891Z,71.16
2023-04-16T02:47:52.651Z,73.98
2023-04-16T02:50:24.228Z,72.30
2023-04-16T02:52:56.524Z,72.70
2023-04-16T02:55:29.539Z,72.13
2023-04-16T02:58:01.614Z,69.79
2023-04-16T03:00:33.151Z,70.40
2023-04-16T03:03:04.793Z,72.62
2023-04-16T03:05:38.020Z,72.32
2023-04-16T03:08:10.835Z,73.08
2023-04-16T03:10:43.386Z,71.55
2023-04-16T03:13:15.316Z,71.37
2023-04-16T03:15:50.478Z,72.55
2023-04-16T03:18:22.099Z,73.18
2023-04-16T03:20:54.252Z,71.71
2023-04-16T03:23:26.363Z,72.00
2023-04-16T03:25:57.957Z,72.26
2023-04-16T03:28:29.617Z,72.09
2023-04-16T03:31:01.411Z,73.56
2023-04-16T03:33:33.085Z,74.04
2023-04-16T03:36:05.005Z,74.16
2023-04-16T03:38:36.653Z,71.79
2023-04-16T03:41:08.219Z,71.95
2023-04-16T03:43:40.057Z,71.78
2023-04-16T03:46:11.790Z,73.22
2023-04-16T03:48:43.420Z,72.50
2023-04-16T03:51:15.457Z,75.15
2023-04-16T03:53:47.054Z,73.47
2023-04-16T03:56:18.600Z,72.46
2023-04-16T03:58:50.316Z,72.64
2023-04-16T04:01:21.915Z,71.81
2023-04-16T04:03:53.861Z,72.76
2023-04-16T04:06:25.479Z,70.95
2023-04-16T04:08:57.436Z,71.40
2023-04-16T04:11:30.997Z,70.00
2023-04-16T04:14:02.666Z,71.21
2023-04-16T04:16:35.358Z,69.30
2023-04-16T04:19:07.092Z,69.29
2023-04-16T04:21:38.948Z,70.35
2023-04-16T04:24:10.664Z,69.87
2023-04-16T04:26:42.508Z,70.72
2023-04-16T04:29:14.062Z,71.82
2023-04-16T04:31:46.195Z,70.57
2023-04-16T04:34:18.342Z,71.00
2023-04-16T04:36:50.141Z,70.99
2023-04-16T04:39:22.630Z,70.39
2023-04-16T04:41:54.391Z,71.34
2023-04-16T04:44:26.565Z,71.46
2023-04-16T04:46:58.341Z,71.64
2023-04-16T04:49:30.961Z,71.62
2023-04-16T04:52:02.775Z,70.33
2023-04-16T04:54:34.628Z,70.33
2023-04-16T04:57:06.336Z,69.94
2023-04-16T04:59:38.049Z,69.54
2023-04-16T05:02:10.529Z,68.87
2023-04-16T05:04:42.346Z,68.72
2023-04-16T05:07:14.365Z,67.39
2023-04-16T05:09:45.971Z,68.47
2023-04-16T05:12:17.785Z,67.95
2023-04-16T05:14:53.401Z,69.85
2023-04-16T05:17:27.527Z,70.13
2023-04-16T05:20:02.913Z,70.59
2023-04-16T05:22:35.173Z,70.11
2023-04-16T05:25:07.365Z,72.29
2023-04-16T05:27:39.073Z,73.61
2023-04-16T05:30:11.335Z,72.50
2023-04-16T05:32:43.007Z,72.93
2023-04-16T05:35:17.206Z,73.33
2023-04-16T05:37:49.187Z,73.93
2023-04-16T05:40:21.110Z,73.21
2023-04-16T05:42:52.853Z,73.78
2023-04-16T05:45:26.731Z,73.28
2023-04-16T05:47:59.574Z,74.83
2023-04-16T05:50:31.350Z,72.12
2023-04-16T05:53:08.070Z,72.80
2023-04-16T05:55:39.790Z,75.78
2023-04-16T05:58:11.348Z,76.66
2023-04-16T06:00:43.062Z,76.56
2023-04-16T06:03:14.967Z,74.00
2023-04-16T06:05:46.826Z,71.31
2023-04-16T06:08:18.649Z,73.35
2023-04-16T06:10:51.247Z,73.39
2023-04-16T06:13:22.810Z,74.29
2023-04-16T06:15:54.670Z,72.37
2023-04-16T06:18:28.239Z,74.77
2023-04-16T06:21:00.475Z,74.05
2023-04-16T06:23:34.217Z,71.20
2023-04-16T06:26:06.385Z,70.10
2023-04-16T06:28:38.688Z,68.92
2023-04-16T06:31:11.222Z,67.95
2023-04-16T06:33:44.485Z,66.91
2023-04-16T06:36:19.242Z,67.11
2023-04-16T06:38:50.955Z,66.84
2023-04-16T06:41:25.507Z,68.02
2023-04-16T06:43:57.137Z,66.60
2023-04-16T06:46:29.441Z,66.94
2023-04-16T06:49:01.335Z,69.68
2023-04-16T06:51:34.055Z,67.82
2023-04-16T06:54:06.231Z,66.28
2023-04-16T06:56:38.159Z,66.36
2023-04-16T06:59:11.221Z,69.70
2023-04-16T07:01:43.056Z,72.52
2023-04-16T07:04:16.345Z,74.86
2023-04-16T07:06:48.298Z,72.38
2023-04-16T07:09:20.187Z,71.01
2023-04-16T07:11:52.086Z,67.57
2023-04-16T07:14:23.954Z,70.14
2023-04-16T07:16:55.914Z,68.78
2023-04-16T07:19:31.956Z,67.02
2023-04-16T07:22:04.210Z,67.75
2023-04-16T07:24:36.643Z,68.86
2023-04-16T07:27:08.132Z,68.02
2023-04-16T07:29:39.900Z,66.04
2023-04-16T07:32:15.133Z,66.29
2023-04-16T07:34:48.250Z,65.70
2023-04-16T07:37:19.934Z,65.24
2023-04-16T07:39:53.115Z,65.28
2023-04-16T07:42:24.939Z,68.59
2023-04-16T07:44:57.058Z,71.13
2023-04-16T07:47:28.784Z,73.18
2023-04-16T07:50:00.698Z,70.53
2023-04-16T07:52:32.863Z,69.90
2023-04-16T07:55:05.698Z,68.68
2023-04-16T07:57:37.494Z,67.51
2023-04-16T08:00:10.360Z,66.20
2023-04-16T08:02:43.867Z,65.81
2023-04-16T08:05:15.866Z,68.11
2023-04-16T08:07:47.867Z,71.08
2023-04-16T08:10:19.945Z,69.35
2023-04-16T08:12:51.868Z,67.88
2023-04-16T08:15:23.668Z,66.70
2023-04-16T08:17:55.592Z,66.88
2023-04-16T08:20:27.598Z,65.90
2023-04-16T08:22:59.703Z,67.69
2023-04-16T08:25:31.994Z,69.53
2023-04-16T08:28:03.806Z,70.05
2023-04-16T08:30:35.743Z,68.00
2023-04-16T08:33:07.478Z,71.33
2023-04-16T08:35:39.487Z,68.57
2023-04-16T08:38:11.310Z,64.91
2023-04-16T08:40:43.813Z,64.80
2023-04-16T08:43:18.169Z,71.25
2023-04-16T08:45:51.545Z,67.59
2023-04-16T08:48:24.034Z,65.80
2023-04-16T08:50:56.491Z,64.71
2023-04-16T08:53:53.557Z,70.65
2023-04-16T08:56:26.557Z,70.89
2023-04-16T08:59:05.153Z,70.35
2023-04-16T09:01:39.079Z,69.87
2023-04-16T09:04:11.461Z,71.76
2023-04-16T09:06:44.331Z,69.25
2023-04-16T09:09:17.871Z,68.18
2023-04-16T09:11:54.051Z,71.14
2023-04-16T09:14:26.187Z,69.47
2023-04-16T09:17:01.174Z,69.07
2023-04-16T09:19:32.834Z,71.21
2023-04-16T09:22:04.463Z,70.84
2023-04-16T09:24:38.414Z,70.71
2023-04-16T09:27:14.339Z,69.67
2023-04-16T09:29:46.268Z,68.70
2023-04-16T09:32:24.526Z,67.72
2023-04-16T09:35:01.756Z,69.33
2023-04-16T09:37:33.792Z,71.91
2023-04-16T09:40:06.657Z,69.93
2023-04-16T09:42:38.581Z,68.39
2023-04-16T09:45:11.220Z,66.28
2023-04-16T09:47:45.903Z,66.49
2023-04-16T09:50:20.316Z,68.09
2023-04-16T09:52:52.314Z,68.00
2023-04-16T09:55:27.738Z,69.88
2023-04-16T09:58:01.301Z,68.57
2023-04-16T10:00:43.260Z,69.90
2023-04-16T10:03:15.818Z,72.51
2023-04-16T10:05:47.758Z,70.58
2023-04-16T10:08:19.366Z,71.15
2023-04-16T10:10:51.346Z,71.48
2023-04-16T10:13:23.142Z,71.11
2023-04-16T10:15:57.982Z,70.84
2023-04-16T10:18:29.490Z,76.52
2023-04-16T10:21:01.510Z,71.73
2023-04-16T10:23:34.027Z,74.34
2023-04-16T10:26:06.456Z,70.69
2023-04-16T10:28:37.980Z,71.50
2023-04-16T10:31:09.801Z,71.94
2023-04-16T10:33:42.169Z,75.57
2023-04-16T10:36:23.843Z,72.55
2023-04-16T10:38:59.887Z,73.31
2023-04-16T10:41:33.555Z,70.75
2023-04-16T10:44:10.324Z,71.86
2023-04-16T10:46:43.948Z,73.54
2023-04-16T10:49:35.504Z,72.82
2023-04-16T10:52:13.550Z,74.15
2023-04-16T10:54:47.917Z,73.23
2023-04-16T10:57:20.545Z,72.16
2023-04-16T10:59:54.861Z,71.59
2023-04-16T11:02:29.198Z,73.30
2023-04-16T11:05:01.956Z,70.22
2023-04-16T11:07:35.115Z,70.91
2023-04-16T11:10:12.644Z,71.36
2023-04-16T11:12:47.658Z,70.46
2023-04-16T11:15:19.582Z,71.48
2023-04-16T11:17:52.714Z,68.98
2023-04-16T11:20:26.546Z,70.49
2023-04-16T11:22:58.397Z,74.20
2023-04-16T11:25:31.584Z,71.79
2023-04-16T11:28:03.213Z,71.11
2023-04-16T11:30:40.490Z,73.31
2023-04-16T11:33:12.388Z,71.36
2023-04-16T11:35:48.154Z,71.97
2023-04-16T11:38:19.652Z,70.15
2023-04-16T11:40:54.137Z,70.03
2023-04-16T11:43:26.801Z,68.79
2023-04-16T11:46:12.937Z,68.35
2023-04-16T11:48:58.687Z,69.66
2023-04-16T11:51:30.303Z,69.51
2023-04-16T11:54:02.156Z,68.46
2023-04-16T11:56:36.271Z,67.18
2023-04-16T11:59:09.251Z,68.42
2023-04-16T12:01:45.697Z,68.41
2023-04-16T12:04:21.323Z,69.67
2023-04-16T12:07:10.972Z,66.91
2023-04-16T12:09:44.011Z,65.87
2023-04-16T12:12:32.525Z,66.56
2023-04-16T12:15:05.136Z,66.81
2023-04-16T12:17:38.565Z,67.87
2023-04-16T12:20:15.726Z,67.32
2023-04-16T12:22:49.623Z,66.58
2023-04-16T12:25:24.700Z,67.13
2023-04-16T12:27:56.327Z,68.07
2023-04-16T12:30:28.035Z,68.06
2023-04-16T12:33:17.593Z,68.46
2023-04-16T12:35:49.723Z,68.14
2023-04-16T12:38:24.074Z,68.66
2023-04-16T12:40:57.917Z,67.60
2023-04-16T12:43:31.391Z,66.12
2023-04-16T12:46:04.306Z,66.50
2023-04-16T12:48:36.266Z,63.95
2023-04-16T12:51:08.525Z,64.29
2023-04-16T12:53:40.534Z,63.95
2023-04-16T12:56:23.835Z,64.86
2023-04-16T12:58:56.150Z,64.38
2023-04-16T13:01:28.354Z,63.20
2023-04-16T13:04:00.017Z,66.47
2023-04-16T13:06:36.810Z,66.32
2023-04-16T13:09:08.392Z,68.16
2023-04-16T13:11:40.050Z,68.33
2023-04-16T13:14:11.746Z,67.88
2023-04-16T13:16:43.259Z,67.53
2023-04-16T13:19:15.900Z,69.09
2023-04-16T13:21:47.565Z,69.40
2023-04-16T13:24:21.731Z,67.82
2023-04-16T13:26:53.789Z,66.86
2023-04-16T13:29:25.334Z,66.83
2023-04-16T13:31:57.468Z,67.78
2023-04-16T13:34:29.131Z,67.08
2023-04-16T13:37:00.856Z,67.23
2023-04-16T13:39:32.336Z,68.27
2023-04-16T13:42:04.038Z,66.27
2023-04-16T13:44:35.661Z,67.62
2023-04-16T13:47:07.260Z,66.11
2023-04-16T13:49:38.884Z,64.74
2023-04-16T13:52:10.612Z,64.98
2023-04-16T13:54:42.655Z,65.52
2023-04-16T13:57:14.146Z,64.91
2023-04-16T13:59:46.204Z,64.40
2023-04-16T14:02:18.009Z,71.55
2023-04-16T14:04:49.598Z,65.77
2023-04-16T14:07:22.553Z,65.03
2023-04-16T14:09:54.227Z,65.37
2023-04-16T14:12:25.795Z,65.53
2023-04-16T14:14:57.479Z,64.02
2023-04-16T14:17:28.989Z,62.75
2023-04-16T14:20:05.049Z,62.18
2023-04-16T14:22:36.577Z,61.77
2023-04-16T14:25:08.593Z,61.82
2023-04-16T14:27:41.245Z,62.08
2023-04-16T14:30:13.147Z,61.68
2023-04-16T14:32:44.786Z,62.11
2023-04-16T14:35:20.876Z,62.44
2023-04-16T14:37:56.240Z,62.61
2023-04-16T14:40:27.977Z,63.42
2023-04-16T14:42:59.538Z,63.63
2023-04-16T14:45:32.348Z,63.88
2023-04-16T14:48:04.436Z,64.17
2023-04-16T14:50:38.031Z,63.98
2023-04-16T14:53:11.950Z,63.61
2023-04-16T14:55:44.051Z,63.75
2023-04-16T14:58:15.590Z,61.84
2023-04-16T15:00:47.160Z,62.56
2023-04-16T15:03:18.991Z,63.14
2023-04-16T15:05:55.623Z,63.20
2023-04-16T15:08:27.659Z,64.24
2023-04-16T15:10:59.801Z,63.40
2023-04-16T15:13:34.168Z,64.53
2023-04-16T15:16:05.874Z,64.80
2023-04-16T15:18:37.494Z,64.33
2023-04-16T15:21:11.152Z,65.24
2023-04-16T15:23:43.865Z,64.81
2023-04-16T15:26:15.545Z,63.87
2023-04-16T15:28:47.039Z,63.56
2023-04-16T15:31:20.781Z,62.92
2023-04-16T15:33:53.762Z,62.83
2023-04-16T15:36:26.847Z,63.94
2023-04-16T15:38:58.340Z,62.71
2023-04-16T15:41:31.837Z,63.22
2023-04-16T15:44:03.594Z,62.57
2023-04-16T15:46:35.396Z,62.59
2023-04-16T15:49:06.958Z,62.17
2023-04-16T15:51:38.537Z,61.64
2023-04-16T15:54:10.087Z,65.46
2023-04-16T15:56:41.717Z,69.51
2023-04-16T15:59:13.621Z,67.38
2023-04-16T16:01:45.909Z,68.25
2023-04-16T16:04:17.654Z,70.99
2023-04-16T16:06:50.309Z,71.67
2023-04-16T16:09:26.216Z,72.99
2023-04-16T16:11:58.861Z,73.28
2023-04-16T16:14:30.595Z,74.05
2023-04-16T16:17:02.136Z,73.10
2023-04-16T16:19:33.635Z,71.50
2023-04-16T16:22:05.153Z,70.95
2023-04-16T16:24:36.744Z,70.57
2023-04-16T16:27:10.735Z,71.36
2023-04-16T16:29:44.335Z,71.45
2023-04-16T16:32:16.690Z,71.96
2023-04-16T16:34:48.647Z,70.71
2023-04-16T16:37:20.290Z,70.98
2023-04-16T16:39:51.779Z,72.60
2023-04-16T16:42:23.686Z,71.79
2023-04-16T16:44:57.325Z,70.79
2023-04-16T16:47:29.229Z,70.35
2023-04-16T16:50:02.983Z,72.84
2023-04-16T16:52:34.868Z,73.05
2023-04-16T16:55:10.801Z,72.04
2023-04-16T16:57:42.422Z,72.94
2023-04-16T17:00:16.189Z,72.34
2023-04-16T17:02:51.118Z,72.32
2023-04-16T17:05:23.904Z,71.54
2023-04-16T17:07:55.576Z,69.78
2023-04-16T17:10:27.732Z,68.78
2023-04-16T17:12:59.273Z,69.17
2023-04-16T17:15:31.002Z,69.99
2023-04-16T17:18:02.559Z,69.85
2023-04-16T17:20:34.193Z,69.88
2023-04-16T17:23:06.101Z,69.30
2023-04-16T17:25:37.655Z,68.84
2023-04-16T17:28:09.236Z,67.97
2023-04-16T17:30:40.937Z,68.16
2023-04-16T17:33:12.537Z,66.99
2023-04-16T17:35:44.160Z,66.78
2023-04-16T17:38:15.900Z,66.50
2023-04-16T17:40:47.477Z,66.45
2023-04-16T17:43:19.092Z,65.50
2023-04-16T17:45:50.961Z,65.83
2023-04-16T17:48:22.546Z,65.36
2023-04-16T17:50:57.085Z,65.76
2023-04-16T17:53:28.609Z,66.38
2023-04-16T17:56:00.204Z,66.07
2023-04-16T17:58:34.919Z,66.63
2023-04-16T18:01:06.655Z,65.92
2023-04-16T18:03:39.824Z,65.89
2023-04-16T18:06:11.575Z,66.79
2023-04-16T18:08:43.148Z,66.41
2023-04-16T18:11:15.266Z,66.26
2023-04-16T18:13:46.992Z,66.08
2023-04-16T18:16:18.657Z,66.66
2023-04-16T18:18:50.380Z,66.42
2023-04-16T18:21:22.036Z,66.08
2023-04-16T18:23:53.971Z,66.60
2023-04-16T18:26:29.940Z,66.13
2023-04-16T18:29:01.955Z,66.03
2023-04-16T18:31:33.613Z,66.06
2023-04-16T18:34:05.646Z,67.57
2023-04-16T18:36:39.635Z,66.74
2023-04-16T18:39:11.184Z,66.85
2023-04-16T18:41:43.556Z,66.25
2023-04-16T18:44:17.313Z,66.80
2023-04-16T18:46:48.914Z,67.29
2023-04-16T18:49:20.650Z,66.99
2023-04-16T18:51:55.648Z,67.77
2023-04-16T18:54:27.969Z,67.98
2023-04-16T18:57:00.785Z,67.82
2023-04-16T18:59:32.647Z,67.90
2023-04-16T19:02:04.333Z,71.66
2023-04-16T19:04:36.182Z,76.06
2023-04-16T19:07:07.747Z,71.65
2023-04-16T19:09:39.262Z,70.33
2023-04-16T19:12:11.002Z,70.48
2023-04-16T19:14:42.471Z,70.21
2023-04-16T19:17:17.282Z,69.32
2023-04-16T19:19:48.966Z,70.26
2023-04-16T19:22:20.617Z,69.95
2023-04-16T19:24:52.193Z,70.00
2023-04-16T19:27:23.789Z,70.43
2023-04-16T19:29:55.337Z,70.81
2023-04-16T19:32:27.001Z,70.44
2023-04-16T19:34:58.506Z,70.67
2023-04-16T19:37:30.077Z,69.52
2023-04-16T19:40:02.049Z,69.26
2023-04-16T19:42:33.823Z,69.26
2023-04-16T19:45:06.454Z,68.25
2023-04-16T19:47:38.055Z,68.16
2023-04-16T19:50:10.543Z,68.59
2023-04-16T19:52:42.080Z,68.56
2023-04-16T19:55:13.753Z,68.46
2023-04-16T19:57:47.505Z,68.75
2023-04-16T20:00:20.833Z,68.05
2023-04-16T20:02:52.671Z,68.06
2023-04-16T20:05:26.470Z,67.86
2023-04-16T20:07:58.077Z,68.45
2023-04-16T20:10:31.475Z,73.67
2023-04-16T20:13:03.338Z,75.14
2023-04-16T20:15:35.002Z,71.69
2023-04-16T20:18:08.517Z,71.09
2023-04-16T20:20:40.041Z,70.71
2023-04-16T20:23:11.569Z,71.40
2023-04-16T20:25:43.656Z,70.79
2023-04-16T20:28:16.368Z,71.35
2023-04-16T20:30:47.989Z,71.69
2023-04-16T20:33:19.690Z,71.29
2023-04-16T20:35:52.219Z,70.30
2023-04-16T20:38:25.068Z,70.08
2023-04-16T20:41:10.039Z,68.95
2023-04-16T20:43:42.383Z,70.08
2023-04-16T20:49:01.468Z,69.67
2023-04-16T20:51:33.346Z,69.95
2023-04-16T20:54:04.872Z,70.10
2023-04-16T20:56:36.430Z,69.96
2023-04-16T20:59:13.274Z,69.80
2023-04-16T21:01:44.851Z,70.72
2023-04-16T21:04:16.706Z,70.17
2023-04-16T21:06:49.080Z,70.82
2023-04-16T21:09:21.156Z,71.39
2023-04-16T21:11:53.092Z,70.60
2023-04-16T21:14:24.703Z,70.40
2023-04-16T21:16:56.814Z,71.29
2023-04-16T21:19:28.298Z,71.34
2023-04-16T21:21:59.846Z,71.29
2023-04-16T21:24:34.421Z,71.42
2023-04-16T21:27:06.164Z,71.36
2023-04-16T21:29:37.649Z,71.29
2023-04-16T21:32:20.434Z,70.41
2023-04-16T21:34:51.979Z,70.60
2023-04-16T21:37:23.503Z,70.36
2023-04-16T21:39:55.011Z,70.74
2023-04-16T21:42:26.943Z,70.97
2023-04-16T21:44:58.625Z,70.65
2023-04-16T21:47:30.196Z,70.59
2023-04-16T21:50:01.779Z,71.16
2023-04-16T21:52:33.430Z,70.53
2023-04-16T21:55:09.526Z,70.71
2023-04-16T21:57:41.149Z,71.96
2023-04-16T22:00:14.228Z,71.85
2023-04-16T22:02:46.220Z,71.71
2023-04-16T22:05:19.875Z,72.21
2023-04-16T22:07:52.285Z,72.25
2023-04-16T22:10:23.821Z,71.12
2023-04-16T22:12:55.302Z,71.78
2023-04-16T22:15:26.860Z,72.38
2023-04-16T22:17:58.409Z,71.96
2023-04-16T22:20:30.763Z,71.19
2023-04-16T22:23:02.330Z,71.40
2023-04-16T22:25:33.922Z,70.94
2023-04-16T22:28:06.264Z,70.99
2023-04-16T22:30:38.052Z,71.20
2023-04-16T22:33:09.584Z,70.91
2023-04-16T22:35:41.379Z,71.61
2023-04-16T22:38:12.964Z,70.93
2023-04-16T22:40:48.745Z,71.46
2023-04-16T22:43:20.469Z,71.43
2023-04-16T22:46:04.373Z,69.96
2023-04-16T22:48:38.618Z,69.88
2023-04-16T22:51:10.365Z,69.94
2023-04-16T22:53:41.921Z,70.44
2023-04-16T22:56:13.398Z,69.73
2023-04-16T22:58:45.720Z,68.99
2023-04-16T23:01:20.467Z,69.58
2023-04-16T23:03:53.220Z,69.19
2023-04-16T23:06:24.802Z,69.56
2023-04-16T23:08:56.374Z,69.37
2023-04-16T23:11:27.899Z,69.44
2023-04-16T23:13:59.630Z,71.19
2023-04-16T23:16:31.209Z,75.95
2023-04-16T23:19:02.774Z,75.50
2023-04-16T23:21:34.294Z,67.38
2023-04-16T23:24:06.341Z,66.60
2023-04-16T23:26:37.938Z,65.64
2023-04-16T23:29:09.918Z,64.99
2023-04-16T23:31:41.586Z,65.34
2023-04-16T23:34:13.211Z,64.83
2023-04-16T23:36:44.744Z,65.21
2023-04-16T23:39:16.339Z,64.77
2023-04-16T23:41:47.895Z,64.22
2023-04-16T23:44:19.421Z,64.25
2023-04-16T23:46:51.023Z,63.66
2023-04-16T23:49:22.934Z,64.06
2023-04-16T23:51:54.518Z,64.10
2023-04-16T23:54:26.236Z,66.02
2023-04-16T23:56:57.716Z,65.49
2023-04-16T23:59:29.301Z,65.05
